This is the latest recevied weather packets stored in our database for station/object EB5AGF-13. If no packets are shown the sender has not sent any weather packets the latest 10 day(s).
| Time | Temp. | Humidity | Pressure | Rain* | Wind** | Luminosity | Snow |
|---|---|---|---|---|---|---|---|
| 1778018008 | 18.89° C | 79% | 1008 hPa | 0 mm | 0.45 m/s, 288° | 0 W/m² | - |
| 1778017704 | 18.89° C | 78% | 1008.1 hPa | 0 mm | 0 m/s | 0 W/m² | - |
| 1778017399 | 18.89° C | 79% | 1008.3 hPa | 0 mm | 0 m/s | 0 W/m² | - |
| 1778017095 | 18.89° C | 79% | 1008.1 hPa | 0 mm | 0.45 m/s, 258° | 0 W/m² | - |
| 1778016792 | 18.89° C | 79% | 1008.4 hPa | 0 mm | 0.45 m/s, 212° | 0 W/m² | - |
| 1778016487 | 18.89° C | 80% | 1008.3 hPa | 0 mm | 0.45 m/s, 290° | 0 W/m² | - |
| 1778016183 | 18.89° C | 80% | 1008.3 hPa | 0 mm | 0 m/s | 0 W/m² | - |
| 1778015880 | 18.89° C | 80% | 1008.2 hPa | 0 mm | 0 m/s | 0 W/m² | - |
| 1778015575 | 18.89° C | 80% | 1008.5 hPa | 0 mm | 0.45 m/s, 232° | 0 W/m² | - |
| 1778015271 | 18.89° C | 80% | 1008.2 hPa | 0 mm | 0 m/s | 0 W/m² | - |
| 1778014967 | 18.89° C | 80% | 1008.2 hPa | 0 mm | 0.45 m/s, 223° | 0 W/m² | - |
| 1778014664 | 18.89° C | 80% | 1008.2 hPa | 0 mm | 0 m/s | 0 W/m² | - |
| 1778014352 | 18.89° C | 80% | 1008.2 hPa | 0 mm | 0.45 m/s, 220° | 0 W/m² | - |
| 1778014051 | 18.89° C | 80% | 1008.3 hPa | 0 mm | 0.45 m/s, 229° | 0 W/m² | - |
| 1778013751 | 18.89° C | 80% | 1008.2 hPa | 0 mm | 0.45 m/s, 231° | 0 W/m² | - |
| 1778013448 | 18.89° C | 80% | 1008.1 hPa | 0 mm | 1.79 m/s, 166° | 0 W/m² | - |
| 1778013143 | 18.89° C | 80% | 1008 hPa | 0 mm | 0.89 m/s, 276° | 0 W/m² | - |
| 1778012839 | 18.89° C | 80% | 1007.7 hPa | 0 mm | 1.79 m/s, 209° | 0 W/m² | - |
| 1778012535 | 18.89° C | 80% | 1007.7 hPa | 0 mm | 0.45 m/s, 257° | 0 W/m² | - |
| 1778012232 | 18.89° C | 80% | 1007.8 hPa | 0 mm | 2.24 m/s, 239° | 0 W/m² | - |
| 1778011927 | 18.89° C | 80% | 1007.8 hPa | 0 mm | 2.24 m/s, 204° | 0 W/m² | - |
| 1778011623 | 18.89° C | 80% | 1007.8 hPa | 0 mm | 0.45 m/s, 229° | 0 W/m² | - |
| 1778011319 | 18.89° C | 80% | 1007.7 hPa | 0 mm | 0.89 m/s, 237° | 0 W/m² | - |
| 1778011016 | 18.89° C | 79% | 1007.5 hPa | 0 mm | 1.79 m/s, 203° | 0 W/m² | - |
| 1778010711 | 18.89° C | 79% | 1007.6 hPa | 0 mm | 0.45 m/s, 215° | 0 W/m² | - |
* Rain latest hour (hover to see other rain measurements)
** Current wind speed in m/s (hover to see current wind gust speed)